sensor_id;sensor_type;location;lat;lon;timestamp;temperature;humidity
4962;DHT22;2496;52.468;13.342;2023-12-29T00:01:57;7.90;99.90
4962;DHT22;2496;52.468;13.342;2023-12-29T00:04:25;7.90;99.90
4962;DHT22;2496;52.468;13.342;2023-12-29T00:06:51;7.90;99.90
4962;DHT22;2496;52.468;13.342;2023-12-29T00:09:18;7.90;99.90
4962;DHT22;2496;52.468;13.342;2023-12-29T00:11:46;7.90;99.90
4962;DHT22;2496;52.468;13.342;2023-12-29T00:14:13;7.90;99.90
4962;DHT22;2496;52.468;13.342;2023-12-29T00:16:42;7.90;99.90
4962;DHT22;2496;52.468;13.342;2023-12-29T00:19:09;7.90;99.90
4962;DHT22;2496;52.468;13.342;2023-12-29T00:21:37;8.00;99.90
4962;DHT22;2496;52.468;13.342;2023-12-29T00:24:04;8.00;99.90
4962;DHT22;2496;52.468;13.342;2023-12-29T00:26:32;8.00;99.90
4962;DHT22;2496;52.468;13.342;2023-12-29T00:28:59;8.00;99.90
4962;DHT22;2496;52.468;13.342;2023-12-29T00:31:26;8.00;99.90
4962;DHT22;2496;52.468;13.342;2023-12-29T00:33:54;8.00;99.90
4962;DHT22;2496;52.468;13.342;2023-12-29T00:36:21;8.00;99.90
4962;DHT22;2496;52.468;13.342;2023-12-29T00:38:48;8.00;99.90
4962;DHT22;2496;52.468;13.342;2023-12-29T00:41:15;8.00;99.90
4962;DHT22;2496;52.468;13.342;2023-12-29T00:43:42;8.00;99.90
4962;DHT22;2496;52.468;13.342;2023-12-29T00:46:09;8.00;99.90
4962;DHT22;2496;52.468;13.342;2023-12-29T00:48:36;8.00;99.90
4962;DHT22;2496;52.468;13.342;2023-12-29T00:51:04;8.00;99.90
4962;DHT22;2496;52.468;13.342;2023-12-29T00:53:31;8.00;99.90
4962;DHT22;2496;52.468;13.342;2023-12-29T00:55:59;8.00;99.90
4962;DHT22;2496;52.468;13.342;2023-12-29T00:58:26;8.00;99.90
4962;DHT22;2496;52.468;13.342;2023-12-29T01:00:53;8.00;99.90
4962;DHT22;2496;52.468;13.342;2023-12-29T01:03:20;8.00;99.90
4962;DHT22;2496;52.468;13.342;2023-12-29T01:05:47;8.00;99.90
4962;DHT22;2496;52.468;13.342;2023-12-29T01:08:16;8.00;99.90
4962;DHT22;2496;52.468;13.342;2023-12-29T01:10:42;8.00;99.90
4962;DHT22;2496;52.468;13.342;2023-12-29T01:13:10;8.00;99.90
4962;DHT22;2496;52.468;13.342;2023-12-29T01:15:37;8.00;99.90
4962;DHT22;2496;52.468;13.342;2023-12-29T01:18:06;8.00;99.90
4962;DHT22;2496;52.468;13.342;2023-12-29T01:20:33;8.00;99.90
4962;DHT22;2496;52.468;13.342;2023-12-29T01:23:00;8.00;99.90
4962;DHT22;2496;52.468;13.342;2023-12-29T01:25:28;8.00;99.90
4962;DHT22;2496;52.468;13.342;2023-12-29T01:27:55;8.00;99.90
4962;DHT22;2496;52.468;13.342;2023-12-29T01:30:23;8.00;99.90
4962;DHT22;2496;52.468;13.342;2023-12-29T01:32:50;8.00;99.90
4962;DHT22;2496;52.468;13.342;2023-12-29T01:35:19;8.00;99.90
4962;DHT22;2496;52.468;13.342;2023-12-29T01:37:46;8.00;99.90
4962;DHT22;2496;52.468;13.342;2023-12-29T01:40:13;8.00;99.90
4962;DHT22;2496;52.468;13.342;2023-12-29T01:42:43;8.00;99.90
4962;DHT22;2496;52.468;13.342;2023-12-29T01:45:19;8.00;99.90
4962;DHT22;2496;52.468;13.342;2023-12-29T01:47:47;8.00;99.90
4962;DHT22;2496;52.468;13.342;2023-12-29T01:50:15;8.00;99.90
4962;DHT22;2496;52.468;13.342;2023-12-29T01:52:43;8.00;99.90
4962;DHT22;2496;52.468;13.342;2023-12-29T01:55:13;8.00;99.90
4962;DHT22;2496;52.468;13.342;2023-12-29T01:57:43;8.00;99.90
4962;DHT22;2496;52.468;13.342;2023-12-29T02:00:11;8.00;99.90
4962;DHT22;2496;52.468;13.342;2023-12-29T02:02:39;8.00;99.90
4962;DHT22;2496;52.468;13.342;2023-12-29T02:05:06;8.00;99.90
4962;DHT22;2496;52.468;13.342;2023-12-29T02:07:33;8.00;99.90
4962;DHT22;2496;52.468;13.342;2023-12-29T02:10:01;8.00;99.90
4962;DHT22;2496;52.468;13.342;2023-12-29T02:12:29;8.00;99.90
4962;DHT22;2496;52.468;13.342;2023-12-29T02:14:57;8.00;99.90
4962;DHT22;2496;52.468;13.342;2023-12-29T02:17:29;8.10;99.90
4962;DHT22;2496;52.468;13.342;2023-12-29T02:19:58;8.10;99.90
4962;DHT22;2496;52.468;13.342;2023-12-29T02:22:25;8.10;99.90
4962;DHT22;2496;52.468;13.342;2023-12-29T02:24:54;8.10;99.90
4962;DHT22;2496;52.468;13.342;2023-12-29T02:27:31;8.10;99.90
4962;DHT22;2496;52.468;13.342;2023-12-29T02:30:09;8.10;99.90
4962;DHT22;2496;52.468;13.342;2023-12-29T02:32:40;8.10;99.90
4962;DHT22;2496;52.468;13.342;2023-12-29T02:35:10;8.10;99.90
4962;DHT22;2496;52.468;13.342;2023-12-29T02:37:39;8.10;99.90
4962;DHT22;2496;52.468;13.342;2023-12-29T02:40:08;8.10;99.90
4962;DHT22;2496;52.468;13.342;2023-12-29T02:42:36;8.10;99.90
4962;DHT22;2496;52.468;13.342;2023-12-29T02:45:03;8.10;99.90
4962;DHT22;2496;52.468;13.342;2023-12-29T02:47:30;8.10;99.90
4962;DHT22;2496;52.468;13.342;2023-12-29T02:49:57;8.10;99.90
4962;DHT22;2496;52.468;13.342;2023-12-29T02:52:24;8.10;99.90
4962;DHT22;2496;52.468;13.342;2023-12-29T02:54:51;8.10;99.90
4962;DHT22;2496;52.468;13.342;2023-12-29T02:57:19;8.10;99.90
4962;DHT22;2496;52.468;13.342;2023-12-29T02:59:46;8.10;99.90
4962;DHT22;2496;52.468;13.342;2023-12-29T03:02:13;8.20;99.90
4962;DHT22;2496;52.468;13.342;2023-12-29T03:04:40;8.20;99.90
4962;DHT22;2496;52.468;13.342;2023-12-29T03:07:07;8.20;99.90
4962;DHT22;2496;52.468;13.342;2023-12-29T03:09:34;8.20;99.90
4962;DHT22;2496;52.468;13.342;2023-12-29T03:12:01;8.20;99.90
4962;DHT22;2496;52.468;13.342;2023-12-29T03:14:29;8.20;99.90
4962;DHT22;2496;52.468;13.342;2023-12-29T03:16:56;8.20;99.90
4962;DHT22;2496;52.468;13.342;2023-12-29T03:19:23;8.20;99.90
4962;DHT22;2496;52.468;13.342;2023-12-29T03:21:50;8.20;99.90
4962;DHT22;2496;52.468;13.342;2023-12-29T03:24:19;8.20;99.90
4962;DHT22;2496;52.468;13.342;2023-12-29T03:26:46;8.20;99.90
4962;DHT22;2496;52.468;13.342;2023-12-29T03:29:13;8.20;99.90
4962;DHT22;2496;52.468;13.342;2023-12-29T03:31:41;8.20;99.90
4962;DHT22;2496;52.468;13.342;2023-12-29T03:34:08;8.20;99.90
4962;DHT22;2496;52.468;13.342;2023-12-29T03:36:35;8.20;99.90
4962;DHT22;2496;52.468;13.342;2023-12-29T03:39:02;8.20;99.90
4962;DHT22;2496;52.468;13.342;2023-12-29T03:41:30;8.20;99.90
4962;DHT22;2496;52.468;13.342;2023-12-29T03:43:57;8.30;99.90
4962;DHT22;2496;52.468;13.342;2023-12-29T03:46:25;8.30;99.90
4962;DHT22;2496;52.468;13.342;2023-12-29T03:48:53;8.30;99.90
4962;DHT22;2496;52.468;13.342;2023-12-29T03:51:20;8.30;99.90
4962;DHT22;2496;52.468;13.342;2023-12-29T03:53:47;8.30;99.90
4962;DHT22;2496;52.468;13.342;2023-12-29T03:56:15;8.30;99.90
4962;DHT22;2496;52.468;13.342;2023-12-29T03:58:42;8.30;99.90
4962;DHT22;2496;52.468;13.342;2023-12-29T04:01:10;8.30;99.90
4962;DHT22;2496;52.468;13.342;2023-12-29T04:03:37;8.30;99.90
4962;DHT22;2496;52.468;13.342;2023-12-29T04:06:07;8.30;99.90
4962;DHT22;2496;52.468;13.342;2023-12-29T04:08:34;8.40;99.90
4962;DHT22;2496;52.468;13.342;2023-12-29T04:11:01;8.40;99.90
4962;DHT22;2496;52.468;13.342;2023-12-29T04:13:28;8.40;99.90
4962;DHT22;2496;52.468;13.342;2023-12-29T04:15:55;8.40;99.90
4962;DHT22;2496;52.468;13.342;2023-12-29T04:18:23;8.40;99.90
4962;DHT22;2496;52.468;13.342;2023-12-29T04:20:50;8.40;99.90
4962;DHT22;2496;52.468;13.342;2023-12-29T04:23:19;8.40;99.90
4962;DHT22;2496;52.468;13.342;2023-12-29T04:25:46;8.40;99.90
4962;DHT22;2496;52.468;13.342;2023-12-29T04:28:13;8.40;99.90
4962;DHT22;2496;52.468;13.342;2023-12-29T04:30:40;8.40;99.90
4962;DHT22;2496;52.468;13.342;2023-12-29T04:33:07;8.40;99.90
4962;DHT22;2496;52.468;13.342;2023-12-29T04:35:34;8.40;99.90
4962;DHT22;2496;52.468;13.342;2023-12-29T04:38:00;8.40;99.90
4962;DHT22;2496;52.468;13.342;2023-12-29T04:40:29;8.40;99.90
4962;DHT22;2496;52.468;13.342;2023-12-29T04:42:56;8.40;99.90
4962;DHT22;2496;52.468;13.342;2023-12-29T04:45:23;8.40;99.90
4962;DHT22;2496;52.468;13.342;2023-12-29T04:47:50;8.40;99.90
4962;DHT22;2496;52.468;13.342;2023-12-29T04:50:17;8.40;99.90
4962;DHT22;2496;52.468;13.342;2023-12-29T04:52:43;8.40;99.90
4962;DHT22;2496;52.468;13.342;2023-12-29T04:55:10;8.40;99.90
4962;DHT22;2496;52.468;13.342;2023-12-29T04:57:40;8.40;99.90
4962;DHT22;2496;52.468;13.342;2023-12-29T05:00:07;8.40;99.90
4962;DHT22;2496;52.468;13.342;2023-12-29T05:02:34;8.40;99.90
4962;DHT22;2496;52.468;13.342;2023-12-29T05:05:02;8.40;99.90
4962;DHT22;2496;52.468;13.342;2023-12-29T05:07:29;8.50;99.90
4962;DHT22;2496;52.468;13.342;2023-12-29T05:09:56;8.50;99.90
4962;DHT22;2496;52.468;13.342;2023-12-29T05:12:22;8.50;99.90
4962;DHT22;2496;52.468;13.342;2023-12-29T05:14:51;8.50;99.90
4962;DHT22;2496;52.468;13.342;2023-12-29T05:17:18;8.50;99.90
4962;DHT22;2496;52.468;13.342;2023-12-29T05:19:44;8.50;99.90
4962;DHT22;2496;52.468;13.342;2023-12-29T05:22:10;8.50;99.90
4962;DHT22;2496;52.468;13.342;2023-12-29T05:24:41;8.50;99.90
4962;DHT22;2496;52.468;13.342;2023-12-29T05:27:08;8.50;99.90
4962;DHT22;2496;52.468;13.342;2023-12-29T05:29:35;8.50;99.90
4962;DHT22;2496;52.468;13.342;2023-12-29T05:32:05;8.50;99.90
4962;DHT22;2496;52.468;13.342;2023-12-29T05:34:32;8.50;99.90
4962;DHT22;2496;52.468;13.342;2023-12-29T05:36:59;8.50;99.90
4962;DHT22;2496;52.468;13.342;2023-12-29T05:39:26;8.50;99.90
4962;DHT22;2496;52.468;13.342;2023-12-29T05:41:53;8.50;99.90
4962;DHT22;2496;52.468;13.342;2023-12-29T05:44:20;8.60;99.90
4962;DHT22;2496;52.468;13.342;2023-12-29T05:46:47;8.60;99.90
4962;DHT22;2496;52.468;13.342;2023-12-29T05:49:15;8.60;99.90
4962;DHT22;2496;52.468;13.342;2023-12-29T05:51:43;8.70;99.90
4962;DHT22;2496;52.468;13.342;2023-12-29T05:54:11;8.70;99.90
4962;DHT22;2496;52.468;13.342;2023-12-29T05:56:38;8.70;99.90
4962;DHT22;2496;52.468;13.342;2023-12-29T05:59:05;8.70;99.90
4962;DHT22;2496;52.468;13.342;2023-12-29T06:01:32;8.70;99.90
4962;DHT22;2496;52.468;13.342;2023-12-29T06:03:59;8.70;99.90
4962;DHT22;2496;52.468;13.342;2023-12-29T06:06:27;8.70;99.90
4962;DHT22;2496;52.468;13.342;2023-12-29T06:08:54;8.70;99.90
4962;DHT22;2496;52.468;13.342;2023-12-29T06:11:21;8.70;99.90
4962;DHT22;2496;52.468;13.342;2023-12-29T06:13:48;8.70;99.90
4962;DHT22;2496;52.468;13.342;2023-12-29T06:16:19;8.70;99.90
4962;DHT22;2496;52.468;13.342;2023-12-29T06:18:46;8.80;99.90
4962;DHT22;2496;52.468;13.342;2023-12-29T06:21:13;8.70;99.90
4962;DHT22;2496;52.468;13.342;2023-12-29T06:23:42;8.80;99.90
4962;DHT22;2496;52.468;13.342;2023-12-29T06:26:14;8.80;99.90
4962;DHT22;2496;52.468;13.342;2023-12-29T06:28:42;8.70;99.90
4962;DHT22;2496;52.468;13.342;2023-12-29T06:31:09;8.70;99.90
4962;DHT22;2496;52.468;13.342;2023-12-29T06:33:38;8.80;99.90
4962;DHT22;2496;52.468;13.342;2023-12-29T06:36:07;8.80;99.90
4962;DHT22;2496;52.468;13.342;2023-12-29T06:38:35;8.80;99.90
4962;DHT22;2496;52.468;13.342;2023-12-29T06:41:04;8.90;99.90
4962;DHT22;2496;52.468;13.342;2023-12-29T06:43:30;8.90;99.90
4962;DHT22;2496;52.468;13.342;2023-12-29T06:45:57;8.90;99.90
4962;DHT22;2496;52.468;13.342;2023-12-29T06:48:23;9.00;99.90
4962;DHT22;2496;52.468;13.342;2023-12-29T06:50:50;9.00;99.90
4962;DHT22;2496;52.468;13.342;2023-12-29T06:53:17;9.10;99.90
4962;DHT22;2496;52.468;13.342;2023-12-29T06:55:44;9.10;99.90
4962;DHT22;2496;52.468;13.342;2023-12-29T06:58:13;9.10;99.90
4962;DHT22;2496;52.468;13.342;2023-12-29T07:00:40;9.10;99.90
4962;DHT22;2496;52.468;13.342;2023-12-29T07:03:07;9.10;99.90
4962;DHT22;2496;52.468;13.342;2023-12-29T07:05:34;9.10;99.90
4962;DHT22;2496;52.468;13.342;2023-12-29T07:08:01;9.10;99.90
4962;DHT22;2496;52.468;13.342;2023-12-29T07:10:28;9.10;99.90
4962;DHT22;2496;52.468;13.342;2023-12-29T07:12:55;9.10;99.90
4962;DHT22;2496;52.468;13.342;2023-12-29T07:15:23;9.20;99.90
4962;DHT22;2496;52.468;13.342;2023-12-29T07:17:50;9.20;99.90
4962;DHT22;2496;52.468;13.342;2023-12-29T07:20:17;9.20;99.90
4962;DHT22;2496;52.468;13.342;2023-12-29T07:22:44;9.20;99.90
4962;DHT22;2496;52.468;13.342;2023-12-29T07:25:11;9.20;99.90
4962;DHT22;2496;52.468;13.342;2023-12-29T07:27:38;9.20;99.90
4962;DHT22;2496;52.468;13.342;2023-12-29T07:30:07;9.20;99.90
4962;DHT22;2496;52.468;13.342;2023-12-29T07:32:36;9.20;99.90
4962;DHT22;2496;52.468;13.342;2023-12-29T07:35:03;9.20;99.90
4962;DHT22;2496;52.468;13.342;2023-12-29T07:37:30;9.20;99.90
4962;DHT22;2496;52.468;13.342;2023-12-29T07:39:58;9.20;99.90
4962;DHT22;2496;52.468;13.342;2023-12-29T07:42:25;9.20;99.90
4962;DHT22;2496;52.468;13.342;2023-12-29T07:44:52;9.20;99.90
4962;DHT22;2496;52.468;13.342;2023-12-29T07:47:20;9.20;99.90
4962;DHT22;2496;52.468;13.342;2023-12-29T07:49:49;9.20;99.90
4962;DHT22;2496;52.468;13.342;2023-12-29T07:52:16;9.20;99.90
4962;DHT22;2496;52.468;13.342;2023-12-29T07:54:44;9.20;99.90
4962;DHT22;2496;52.468;13.342;2023-12-29T07:57:11;9.20;99.90
4962;DHT22;2496;52.468;13.342;2023-12-29T07:59:38;9.30;99.90
4962;DHT22;2496;52.468;13.342;2023-12-29T08:02:06;9.30;99.90
4962;DHT22;2496;52.468;13.342;2023-12-29T08:04:33;9.30;99.90
4962;DHT22;2496;52.468;13.342;2023-12-29T08:07:01;9.30;99.90
4962;DHT22;2496;52.468;13.342;2023-12-29T08:09:28;9.30;99.90
4962;DHT22;2496;52.468;13.342;2023-12-29T08:11:55;9.30;99.90
4962;DHT22;2496;52.468;13.342;2023-12-29T08:14:23;9.30;99.90
4962;DHT22;2496;52.468;13.342;2023-12-29T08:16:50;9.40;99.90
4962;DHT22;2496;52.468;13.342;2023-12-29T08:19:17;9.40;99.90
4962;DHT22;2496;52.468;13.342;2023-12-29T08:21:43;9.50;99.90
4962;DHT22;2496;52.468;13.342;2023-12-29T08:24:12;9.50;99.90
4962;DHT22;2496;52.468;13.342;2023-12-29T08:26:44;9.50;99.90
4962;DHT22;2496;52.468;13.342;2023-12-29T08:29:12;9.50;99.90
4962;DHT22;2496;52.468;13.342;2023-12-29T08:31:39;9.60;99.90
4962;DHT22;2496;52.468;13.342;2023-12-29T08:34:09;9.60;99.90
4962;DHT22;2496;52.468;13.342;2023-12-29T08:36:36;9.60;99.90
4962;DHT22;2496;52.468;13.342;2023-12-29T08:39:03;9.60;99.90
4962;DHT22;2496;52.468;13.342;2023-12-29T08:41:31;9.60;99.90
4962;DHT22;2496;52.468;13.342;2023-12-29T08:43:58;9.60;99.90
4962;DHT22;2496;52.468;13.342;2023-12-29T08:46:25;9.60;99.90
4962;DHT22;2496;52.468;13.342;2023-12-29T08:48:53;9.70;99.90
4962;DHT22;2496;52.468;13.342;2023-12-29T08:51:20;9.70;99.90
4962;DHT22;2496;52.468;13.342;2023-12-29T08:53:47;9.70;99.90
4962;DHT22;2496;52.468;13.342;2023-12-29T08:56:14;9.70;99.90
4962;DHT22;2496;52.468;13.342;2023-12-29T08:58:42;9.80;99.90
4962;DHT22;2496;52.468;13.342;2023-12-29T09:01:10;9.80;99.90
4962;DHT22;2496;52.468;13.342;2023-12-29T09:03:37;9.80;99.90
4962;DHT22;2496;52.468;13.342;2023-12-29T09:06:04;9.80;99.90
4962;DHT22;2496;52.468;13.342;2023-12-29T09:08:34;9.80;99.90
4962;DHT22;2496;52.468;13.342;2023-12-29T09:11:01;9.80;99.90
4962;DHT22;2496;52.468;13.342;2023-12-29T09:13:28;9.80;99.90
4962;DHT22;2496;52.468;13.342;2023-12-29T09:15:58;9.90;99.90
4962;DHT22;2496;52.468;13.342;2023-12-29T09:18:25;10.00;99.90
4962;DHT22;2496;52.468;13.342;2023-12-29T09:20:52;10.00;99.90
4962;DHT22;2496;52.468;13.342;2023-12-29T09:23:19;10.00;99.90
4962;DHT22;2496;52.468;13.342;2023-12-29T09:25:46;10.10;99.90
4962;DHT22;2496;52.468;13.342;2023-12-29T09:28:13;10.10;99.90
4962;DHT22;2496;52.468;13.342;2023-12-29T09:30:40;10.10;99.90
4962;DHT22;2496;52.468;13.342;2023-12-29T09:33:08;10.10;99.90
4962;DHT22;2496;52.468;13.342;2023-12-29T09:35:38;10.10;99.90
4962;DHT22;2496;52.468;13.342;2023-12-29T09:38:05;10.10;99.90
4962;DHT22;2496;52.468;13.342;2023-12-29T09:40:34;10.10;99.90
4962;DHT22;2496;52.468;13.342;2023-12-29T09:43:03;10.10;99.90
4962;DHT22;2496;52.468;13.342;2023-12-29T09:45:33;10.20;99.90
4962;DHT22;2496;52.468;13.342;2023-12-29T09:48:06;10.20;99.90
4962;DHT22;2496;52.468;13.342;2023-12-29T09:50:35;10.20;99.90
4962;DHT22;2496;52.468;13.342;2023-12-29T09:53:03;10.20;99.90
4962;DHT22;2496;52.468;13.342;2023-12-29T09:55:31;10.20;99.90
4962;DHT22;2496;52.468;13.342;2023-12-29T09:58:00;10.20;99.90
4962;DHT22;2496;52.468;13.342;2023-12-29T10:00:27;10.30;99.90
4962;DHT22;2496;52.468;13.342;2023-12-29T10:02:55;10.30;99.90
4962;DHT22;2496;52.468;13.342;2023-12-29T10:05:23;10.30;99.90
4962;DHT22;2496;52.468;13.342;2023-12-29T10:07:53;10.30;99.90
4962;DHT22;2496;52.468;13.342;2023-12-29T10:10:20;10.30;99.90
4962;DHT22;2496;52.468;13.342;2023-12-29T10:12:50;10.30;99.90
4962;DHT22;2496;52.468;13.342;2023-12-29T10:15:21;10.30;99.90
4962;DHT22;2496;52.468;13.342;2023-12-29T10:17:52;10.40;99.90
4962;DHT22;2496;52.468;13.342;2023-12-29T10:20:35;10.40;99.90
4962;DHT22;2496;52.468;13.342;2023-12-29T10:23:08;10.50;99.90
4962;DHT22;2496;52.468;13.342;2023-12-29T10:25:38;10.60;99.90
4962;DHT22;2496;52.468;13.342;2023-12-29T10:28:06;10.70;99.90
4962;DHT22;2496;52.468;13.342;2023-12-29T10:30:35;10.70;99.90
4962;DHT22;2496;52.468;13.342;2023-12-29T10:33:03;10.70;99.90
4962;DHT22;2496;52.468;13.342;2023-12-29T10:35:31;10.70;99.90
4962;DHT22;2496;52.468;13.342;2023-12-29T10:38:09;10.70;99.90
4962;DHT22;2496;52.468;13.342;2023-12-29T10:40:37;10.80;99.90
4962;DHT22;2496;52.468;13.342;2023-12-29T10:43:04;10.80;99.90
4962;DHT22;2496;52.468;13.342;2023-12-29T10:45:33;10.80;99.90
4962;DHT22;2496;52.468;13.342;2023-12-29T10:48:00;10.80;99.90
4962;DHT22;2496;52.468;13.342;2023-12-29T10:50:27;10.80;99.90
4962;DHT22;2496;52.468;13.342;2023-12-29T10:53:14;10.80;99.90
4962;DHT22;2496;52.468;13.342;2023-12-29T10:55:42;10.90;99.90
4962;DHT22;2496;52.468;13.342;2023-12-29T10:58:09;11.00;99.90
4962;DHT22;2496;52.468;13.342;2023-12-29T11:00:36;11.00;99.90
4962;DHT22;2496;52.468;13.342;2023-12-29T11:03:04;10.90;99.90
4962;DHT22;2496;52.468;13.342;2023-12-29T11:05:32;11.00;99.90
4962;DHT22;2496;52.468;13.342;2023-12-29T11:08:00;11.00;99.90
4962;DHT22;2496;52.468;13.342;2023-12-29T11:10:29;11.00;99.90
4962;DHT22;2496;52.468;13.342;2023-12-29T11:12:57;11.00;99.90
4962;DHT22;2496;52.468;13.342;2023-12-29T11:15:25;11.00;99.90
4962;DHT22;2496;52.468;13.342;2023-12-29T11:17:56;11.00;99.90
4962;DHT22;2496;52.468;13.342;2023-12-29T11:20:23;11.00;99.90
4962;DHT22;2496;52.468;13.342;2023-12-29T11:22:52;11.00;99.90
4962;DHT22;2496;52.468;13.342;2023-12-29T11:25:19;11.00;99.90
4962;DHT22;2496;52.468;13.342;2023-12-29T11:27:49;11.00;99.90
4962;DHT22;2496;52.468;13.342;2023-12-29T11:30:16;11.00;99.90
4962;DHT22;2496;52.468;13.342;2023-12-29T11:32:49;11.10;99.90
4962;DHT22;2496;52.468;13.342;2023-12-29T11:35:20;11.00;99.90
4962;DHT22;2496;52.468;13.342;2023-12-29T11:38:10;11.00;99.90
4962;DHT22;2496;52.468;13.342;2023-12-29T11:40:44;11.00;99.90
4962;DHT22;2496;52.468;13.342;2023-12-29T11:43:15;11.00;99.90
4962;DHT22;2496;52.468;13.342;2023-12-29T11:45:43;11.00;99.90
4962;DHT22;2496;52.468;13.342;2023-12-29T11:48:11;11.00;99.90
4962;DHT22;2496;52.468;13.342;2023-12-29T11:50:39;11.00;99.90
4962;DHT22;2496;52.468;13.342;2023-12-29T11:53:07;11.00;99.90
4962;DHT22;2496;52.468;13.342;2023-12-29T11:55:35;11.00;99.90
4962;DHT22;2496;52.468;13.342;2023-12-29T11:58:03;11.00;99.90
4962;DHT22;2496;52.468;13.342;2023-12-29T12:00:45;11.00;99.90
4962;DHT22;2496;52.468;13.342;2023-12-29T12:03:17;11.00;99.90
4962;DHT22;2496;52.468;13.342;2023-12-29T12:05:46;10.90;99.90
4962;DHT22;2496;52.468;13.342;2023-12-29T12:08:27;11.00;99.90
4962;DHT22;2496;52.468;13.342;2023-12-29T12:10:55;11.00;99.90
4962;DHT22;2496;52.468;13.342;2023-12-29T12:13:44;10.90;99.90
4962;DHT22;2496;52.468;13.342;2023-12-29T12:16:51;10.90;99.90
4962;DHT22;2496;52.468;13.342;2023-12-29T12:19:21;11.00;99.90
4962;DHT22;2496;52.468;13.342;2023-12-29T12:21:53;10.90;99.90
4962;DHT22;2496;52.468;13.342;2023-12-29T12:24:20;10.90;99.90
4962;DHT22;2496;52.468;13.342;2023-12-29T12:26:47;10.90;99.90
4962;DHT22;2496;52.468;13.342;2023-12-29T12:29:17;10.90;99.90
4962;DHT22;2496;52.468;13.342;2023-12-29T12:31:57;10.80;99.90
4962;DHT22;2496;52.468;13.342;2023-12-29T12:34:25;10.80;99.90
4962;DHT22;2496;52.468;13.342;2023-12-29T12:36:54;10.80;99.90
4962;DHT22;2496;52.468;13.342;2023-12-29T12:39:25;10.80;99.90
4962;DHT22;2496;52.468;13.342;2023-12-29T12:42:04;10.80;99.90
4962;DHT22;2496;52.468;13.342;2023-12-29T12:44:31;10.70;99.90
4962;DHT22;2496;52.468;13.342;2023-12-29T12:47:01;10.70;99.90
4962;DHT22;2496;52.468;13.342;2023-12-29T12:49:33;10.70;99.90
4962;DHT22;2496;52.468;13.342;2023-12-29T12:52:00;10.70;99.90
4962;DHT22;2496;52.468;13.342;2023-12-29T12:54:28;10.70;99.90
4962;DHT22;2496;52.468;13.342;2023-12-29T12:56:55;10.60;99.90
4962;DHT22;2496;52.468;13.342;2023-12-29T12:59:22;10.60;99.90
4962;DHT22;2496;52.468;13.342;2023-12-29T13:01:49;10.60;99.90
4962;DHT22;2496;52.468;13.342;2023-12-29T13:04:18;10.60;99.90
4962;DHT22;2496;52.468;13.342;2023-12-29T13:06:45;10.50;99.90
4962;DHT22;2496;52.468;13.342;2023-12-29T13:09:12;10.50;99.90
4962;DHT22;2496;52.468;13.342;2023-12-29T13:11:43;10.50;99.90
4962;DHT22;2496;52.468;13.342;2023-12-29T13:14:19;10.50;99.90
4962;DHT22;2496;52.468;13.342;2023-12-29T13:16:50;10.50;99.90
4962;DHT22;2496;52.468;13.342;2023-12-29T13:19:21;10.40;99.90
4962;DHT22;2496;52.468;13.342;2023-12-29T13:21:51;10.40;99.90
4962;DHT22;2496;52.468;13.342;2023-12-29T13:24:20;10.40;99.90
4962;DHT22;2496;52.468;13.342;2023-12-29T13:26:47;10.50;99.90
4962;DHT22;2496;52.468;13.342;2023-12-29T13:29:18;10.50;99.90
4962;DHT22;2496;52.468;13.342;2023-12-29T13:31:46;10.40;99.90
4962;DHT22;2496;52.468;13.342;2023-12-29T13:34:19;10.50;99.90
4962;DHT22;2496;52.468;13.342;2023-12-29T13:36:51;10.50;99.90
4962;DHT22;2496;52.468;13.342;2023-12-29T13:39:24;10.50;99.90
4962;DHT22;2496;52.468;13.342;2023-12-29T13:41:52;10.50;99.90
4962;DHT22;2496;52.468;13.342;2023-12-29T13:44:19;10.50;99.90
4962;DHT22;2496;52.468;13.342;2023-12-29T13:46:47;10.50;99.90
4962;DHT22;2496;52.468;13.342;2023-12-29T13:49:15;10.50;99.90
4962;DHT22;2496;52.468;13.342;2023-12-29T13:51:44;10.50;99.90
4962;DHT22;2496;52.468;13.342;2023-12-29T13:54:10;10.50;99.90
4962;DHT22;2496;52.468;13.342;2023-12-29T13:56:37;10.50;99.90
4962;DHT22;2496;52.468;13.342;2023-12-29T13:59:05;10.50;99.90
4962;DHT22;2496;52.468;13.342;2023-12-29T14:01:36;10.50;99.90
4962;DHT22;2496;52.468;13.342;2023-12-29T14:04:07;10.50;99.90
4962;DHT22;2496;52.468;13.342;2023-12-29T14:06:42;10.50;99.90
4962;DHT22;2496;52.468;13.342;2023-12-29T14:09:15;10.50;99.90
4962;DHT22;2496;52.468;13.342;2023-12-29T14:11:46;10.50;99.90
4962;DHT22;2496;52.468;13.342;2023-12-29T14:14:13;10.50;99.90
4962;DHT22;2496;52.468;13.342;2023-12-29T14:16:40;10.50;99.90
4962;DHT22;2496;52.468;13.342;2023-12-29T14:19:07;10.50;99.90
4962;DHT22;2496;52.468;13.342;2023-12-29T14:21:34;10.50;99.90
4962;DHT22;2496;52.468;13.342;2023-12-29T14:24:10;10.60;99.90
4962;DHT22;2496;52.468;13.342;2023-12-29T14:26:39;10.60;99.90
4962;DHT22;2496;52.468;13.342;2023-12-29T14:29:10;10.60;99.90
4962;DHT22;2496;52.468;13.342;2023-12-29T14:31:38;10.70;99.90
4962;DHT22;2496;52.468;13.342;2023-12-29T14:34:06;10.70;99.90
4962;DHT22;2496;52.468;13.342;2023-12-29T14:36:34;10.70;99.90
4962;DHT22;2496;52.468;13.342;2023-12-29T14:39:01;10.70;99.90
4962;DHT22;2496;52.468;13.342;2023-12-29T14:41:29;10.70;99.90
4962;DHT22;2496;52.468;13.342;2023-12-29T14:43:57;10.70;99.90
4962;DHT22;2496;52.468;13.342;2023-12-29T14:46:25;10.70;99.90
4962;DHT22;2496;52.468;13.342;2023-12-29T14:48:52;10.70;99.90
4962;DHT22;2496;52.468;13.342;2023-12-29T14:51:19;10.70;99.90
4962;DHT22;2496;52.468;13.342;2023-12-29T14:53:48;10.70;99.90
4962;DHT22;2496;52.468;13.342;2023-12-29T14:56:16;10.70;99.90
4962;DHT22;2496;52.468;13.342;2023-12-29T14:58:44;10.70;99.90
4962;DHT22;2496;52.468;13.342;2023-12-29T15:01:12;10.70;99.90
4962;DHT22;2496;52.468;13.342;2023-12-29T15:03:39;10.80;99.90
4962;DHT22;2496;52.468;13.342;2023-12-29T15:06:06;10.70;99.90
4962;DHT22;2496;52.468;13.342;2023-12-29T15:08:33;10.70;99.90
4962;DHT22;2496;52.468;13.342;2023-12-29T15:11:02;10.70;99.90
4962;DHT22;2496;52.468;13.342;2023-12-29T15:13:31;10.70;99.90
4962;DHT22;2496;52.468;13.342;2023-12-29T15:15:58;10.70;99.90
4962;DHT22;2496;52.468;13.342;2023-12-29T15:18:27;10.70;99.90
4962;DHT22;2496;52.468;13.342;2023-12-29T15:20:56;10.60;99.90
4962;DHT22;2496;52.468;13.342;2023-12-29T15:23:23;10.60;99.90
4962;DHT22;2496;52.468;13.342;2023-12-29T15:25:50;10.60;99.90
4962;DHT22;2496;52.468;13.342;2023-12-29T15:28:18;10.50;99.90
4962;DHT22;2496;52.468;13.342;2023-12-29T15:30:45;10.60;99.90
4962;DHT22;2496;52.468;13.342;2023-12-29T15:33:17;10.60;99.90
4962;DHT22;2496;52.468;13.342;2023-12-29T15:35:46;10.60;99.90
4962;DHT22;2496;52.468;13.342;2023-12-29T15:38:13;10.60;99.90
4962;DHT22;2496;52.468;13.342;2023-12-29T15:40:40;10.60;99.90
4962;DHT22;2496;52.468;13.342;2023-12-29T15:43:07;10.60;99.90
4962;DHT22;2496;52.468;13.342;2023-12-29T15:45:34;10.60;99.90
4962;DHT22;2496;52.468;13.342;2023-12-29T15:48:01;10.60;99.90
4962;DHT22;2496;52.468;13.342;2023-12-29T15:50:28;10.60;99.90
4962;DHT22;2496;52.468;13.342;2023-12-29T15:52:57;10.50;99.90
4962;DHT22;2496;52.468;13.342;2023-12-29T15:55:24;10.50;99.90
4962;DHT22;2496;52.468;13.342;2023-12-29T15:57:51;10.50;99.90
4962;DHT22;2496;52.468;13.342;2023-12-29T16:00:18;10.50;99.90
4962;DHT22;2496;52.468;13.342;2023-12-29T16:02:46;10.40;99.90